Time;durP1;ratioP1;P1;durP2;ratioP2;P2;SDS_P1;SDS_P2;PMS_P1;PMS_P2;Temp;Humidity;BMP_temperature;BMP_pressure;BME280_temperature;BME280_humidity;BME280_pressure;Samples;Min_cycle;Max_cycle;Signal;HPM_P1;HPM_P2
2022/02/11 00:07:10;;;;;;;15.45;8.82;;;;;;;6.71;64.93;98722.06;5068268;28;20078;-74
2022/02/11 00:09:36;;;;;;;15.48;8.52;;;;;;;6.70;65.06;98720.41;5068223;28;20040;-73
2022/02/11 00:12:03;;;;;;;15.32;8.77;;;;;;;6.70;64.83;98725.88;5067761;28;20812;-73
2022/02/11 00:14:32;;;;;;;14.05;8.07;;;;;;;6.67;64.92;98718.22;5068167;28;20024;-73
2022/02/11 00:16:58;;;;;;;14.65;8.80;;;;;;;6.60;65.19;98721.16;5067377;28;20024;-72
2022/02/11 00:19:23;;;;;;;15.65;8.57;;;;;;;6.55;65.28;98713.78;5067929;28;20497;-73
2022/02/11 00:21:49;;;;;;;14.13;7.70;;;;;;;6.54;65.37;98719.50;5067991;28;20020;-73
2022/02/11 00:24:15;;;;;;;14.80;8.23;;;;;;;6.52;65.32;98722.50;5068128;28;20021;-73
2022/02/11 00:26:45;;;;;;;17.05;9.15;;;;;;;6.52;65.69;98718.97;5068411;28;20095;-73
2022/02/11 00:32:35;;;;;;;14.70;8.95;;;;;;;6.52;65.50;98724.41;5067282;28;20119;-73
2022/02/11 00:34:43;;;;;;;12.75;8.10;;;;;;;6.52;65.38;98718.97;5060821;28;20041;-71
2022/02/11 00:37:13;;;;;;;13.95;8.52;;;;;;;6.54;65.29;98723.03;5068096;28;20074;-71
2022/02/11 01:03:56;;;;;;;16.83;8.70;;;;;;;6.47;66.05;98711.56;5071797;28;20093;-72
2022/02/11 01:06:22;;;;;;;17.05;9.90;;;;;;;6.42;66.16;98711.50;5071270;28;20017;-72
2022/02/11 01:08:48;;;;;;;16.20;8.50;;;;;;;6.39;66.22;98721.06;5072133;28;20020;-71
2022/02/11 01:11:20;;;;;;;15.52;9.20;;;;;;;6.36;66.41;98715.28;5070943;28;20079;-72
2022/02/11 01:13:46;;;;;;;17.27;9.52;;;;;;;6.35;65.88;98722.66;5071875;28;20776;-72
2022/02/11 01:16:17;;;;;;;14.27;8.32;;;;;;;6.35;66.22;98719.09;5071826;28;20055;-72
2022/02/11 01:18:49;;;;;;;16.48;9.00;;;;;;;6.32;66.39;98728.63;5071445;28;20032;-72
2022/02/11 01:21:23;;;;;;;18.27;9.88;;;;;;;6.33;66.89;98721.25;5070047;28;20028;-72
2022/02/11 01:23:59;;;;;;;13.50;8.60;;;;;;;6.33;66.65;98723.97;5071831;28;20051;-72
2022/02/11 01:26:38;;;;;;;14.40;9.00;;;;;;;6.35;66.87;98714.47;5071983;28;20025;-73
2022/02/11 01:29:30;;;;;;;16.85;9.45;;;;;;;6.38;66.82;98715.84;5071229;28;20055;-72
2022/02/11 01:32:00;;;;;;;16.98;8.82;;;;;;;6.39;66.88;98712.88;5070513;28;20075;-72
2022/02/11 01:58:38;;;;;;;14.75;9.55;;;;;;;6.43;66.83;98693.28;5070893;28;20028;-73
2022/02/11 02:01:29;;;;;;;20.45;10.73;;;;;;;6.40;66.70;98690.00;5070658;28;20060;-73
2022/02/11 02:25:09;;;;;;;16.17;9.90;;;;;;;6.23;66.81;98660.19;5072006;28;20043;-71
2022/02/11 02:33:14;;;;;;;17.35;10.07;;;;;;;6.35;67.09;98670.06;5070476;28;20033;-71
2022/02/11 02:57:47;;;;;;;21.77;11.40;;;;;;;6.05;67.99;98668.78;5071613;28;20036;-70
2022/02/11 03:51:46;;;;;;;15.75;10.18;;;;;;;5.91;69.24;98679.28;5066571;28;20131;-72
2022/02/11 04:56:11;;;;;;;44.50;22.08;;;;;;;6.27;70.50;98624.28;5069338;28;20047;-77
2022/02/11 05:01:20;;;;;;;44.58;22.60;;;;;;;6.29;69.82;98606.56;5068578;28;20078;-77
2022/02/11 05:03:46;;;;;;;41.38;20.27;;;;;;;6.24;69.95;98607.38;5068438;28;20028;-77
2022/02/11 05:06:12;;;;;;;39.75;19.48;;;;;;;6.17;69.78;98598.63;5069951;28;20029;-77
2022/02/11 05:08:38;;;;;;;49.90;22.33;;;;;;;6.17;70.25;98604.06;5068264;28;20478;-76
2022/02/11 05:11:09;;;;;;;41.42;20.17;;;;;;;6.21;70.06;98607.91;5067769;28;20028;-77
2022/02/11 05:13:36;;;;;;;41.25;20.92;;;;;;;6.18;69.75;98611.16;5067703;28;20037;-77
2022/02/11 05:16:01;;;;;;;39.63;20.25;;;;;;;6.15;69.76;98611.66;5067599;28;20576;-77
2022/02/11 05:18:26;;;;;;;29.88;16.73;;;;;;;6.13;69.96;98599.38;5068683;28;20115;-77
2022/02/11 05:20:52;;;;;;;29.55;16.40;;;;;;;6.08;70.30;98600.19;5068590;28;20056;-77
2022/02/11 05:23:17;;;;;;;32.75;17.67;;;;;;;6.04;70.03;98599.06;5068212;28;20043;-77
2022/02/11 05:25:44;;;;;;;40.53;20.58;;;;;;;6.00;69.77;98592.47;5068430;28;20111;-77
2022/02/11 05:28:12;;;;;;;47.63;20.58;;;;;;;6.01;70.03;98589.53;5068690;28;20048;-77
2022/02/11 05:30:38;;;;;;;40.15;20.67;;;;;;;6.03;70.18;98587.38;5069393;28;20120;-77
2022/02/11 05:33:06;;;;;;;40.50;20.85;;;;;;;5.99;70.27;98585.38;5068336;28;20398;-77
2022/02/11 05:35:33;;;;;;;47.38;21.80;;;;;;;5.92;69.99;98589.16;5068208;28;20111;-77
2022/02/11 05:37:59;;;;;;;37.78;18.83;;;;;;;5.87;70.04;98585.59;5068368;28;20037;-77
2022/02/11 05:40:24;;;;;;;32.83;17.65;;;;;;;5.86;70.37;98587.50;5068394;28;20081;-77
2022/02/11 05:42:50;;;;;;;26.85;14.95;;;;;;;5.89;70.57;98586.16;5067448;28;20033;-76
2022/02/11 05:45:16;;;;;;;32.35;17.10;;;;;;;5.86;70.32;98584.78;5065898;28;20039;-78
2022/02/11 05:47:41;;;;;;;33.45;17.88;;;;;;;5.90;70.32;98582.34;5067378;28;20123;-77
2022/02/11 05:50:07;;;;;;;32.10;18.10;;;;;;;5.88;70.10;98582.63;5071219;28;20020;-77
2022/02/11 05:52:33;;;;;;;36.47;20.70;;;;;;;5.90;70.41;98591.34;5067157;28;20493;-77
2022/02/11 05:54:59;;;;;;;37.05;21.90;;;;;;;5.92;70.53;98596.53;5065159;28;20542;-77
2022/02/11 05:57:25;;;;;;;42.53;23.50;;;;;;;5.94;70.58;98599.81;5067318;28;20044;-72
2022/02/11 05:59:50;;;;;;;43.67;25.52;;;;;;;5.93;70.51;98593.53;5068180;28;20048;-72
2022/02/11 06:02:16;;;;;;;56.40;33.33;;;;;;;5.86;70.12;98595.69;5067754;28;20035;-72
2022/02/11 06:04:42;;;;;;;48.58;25.45;;;;;;;5.77;70.47;98592.59;5072106;28;20033;-72
2022/02/11 06:07:07;;;;;;;44.80;25.23;;;;;;;5.74;70.36;98593.13;5070451;28;20025;-72
2022/02/11 06:09:33;;;;;;;45.70;23.75;;;;;;;5.78;70.55;98599.69;5071665;28;20035;-72
2022/02/11 06:11:58;;;;;;;47.97;26.67;;;;;;;5.82;70.50;98594.56;5071296;28;20052;-73
2022/02/11 06:14:24;;;;;;;62.15;31.17;;;;;;;5.85;70.35;98596.75;5071030;28;20024;-72
2022/02/11 06:16:49;;;;;;;54.17;28.48;;;;;;;5.84;70.24;98586.13;5071250;28;20029;-73
2022/02/11 06:19:15;;;;;;;46.85;24.98;;;;;;;5.85;70.52;98594.03;5072141;28;20038;-72
2022/02/11 06:21:40;;;;;;;47.05;25.85;;;;;;;5.79;70.19;98590.44;5071451;28;20063;-72
2022/02/11 06:24:06;;;;;;;47.75;25.52;;;;;;;5.76;70.15;98598.31;5071910;28;20025;-72
2022/02/11 06:26:31;;;;;;;47.70;25.58;;;;;;;5.75;70.36;98596.69;5072541;28;20039;-73
2022/02/11 06:28:57;;;;;;;44.65;24.73;;;;;;;5.72;70.19;98595.28;5073203;28;20036;-72
2022/02/11 06:31:23;;;;;;;45.17;26.10;;;;;;;5.69;70.47;98597.72;5072054;28;20075;-72
2022/02/11 06:33:48;;;;;;;45.80;26.70;;;;;;;5.65;70.13;98598.22;5072611;28;20109;-73
2022/02/11 06:36:14;;;;;;;42.28;26.48;;;;;;;5.66;70.55;98599.06;5067012;28;20028;-72
2022/02/11 06:38:39;;;;;;;48.28;27.00;;;;;;;5.67;70.24;98584.38;5069903;28;20028;-72
2022/02/11 06:41:05;;;;;;;57.28;29.88;;;;;;;5.68;70.21;98596.91;5071550;28;20167;-72
2022/02/11 06:43:31;;;;;;;66.72;33.63;;;;;;;5.67;70.44;98587.09;5071760;28;20084;-72
2022/02/11 06:45:58;;;;;;;59.85;32.10;;;;;;;5.66;70.63;98594.44;5072485;28;20029;-72
2022/02/11 06:48:24;;;;;;;59.90;31.73;;;;;;;5.69;70.40;98587.66;5070959;28;20036;-72
2022/02/11 06:50:51;;;;;;;60.88;31.60;;;;;;;5.70;70.40;98586.59;5070452;28;20040;-72
2022/02/11 06:53:17;;;;;;;59.50;32.10;;;;;;;5.73;70.74;98593.41;5069044;28;20077;-72
2022/02/11 06:55:42;;;;;;;54.35;29.65;;;;;;;5.74;70.62;98595.84;5069784;28;20046;-72
2022/02/11 06:58:08;;;;;;;48.85;26.70;;;;;;;5.73;70.45;98590.66;5070336;28;20086;-72
2022/02/11 07:00:33;;;;;;;47.75;26.42;;;;;;;5.73;70.71;98590.66;5067944;28;20047;-72
2022/02/11 07:03:00;;;;;;;49.22;26.85;;;;;;;5.76;70.89;98593.69;5070884;28;20041;-72
2022/02/11 07:05:27;;;;;;;53.47;28.75;;;;;;;5.78;70.66;98593.44;5070334;28;20020;-72
2022/02/11 07:07:54;;;;;;;65.82;33.50;;;;;;;5.82;70.69;98592.63;5070011;28;20041;-73
2022/02/11 07:10:20;;;;;;;65.25;35.22;;;;;;;5.95;70.66;98585.91;5068289;28;20059;-72
2022/02/11 07:12:46;;;;;;;72.50;39.38;;;;;;;6.05;70.68;98584.38;5068945;28;20136;-73
2022/02/11 07:15:11;;;;;;;84.38;42.85;;;;;;;6.15;70.84;98589.06;5070255;28;20558;-73
2022/02/11 07:17:37;;;;;;;85.35;42.50;;;;;;;6.23;70.92;98585.84;5071224;28;20021;-72
2022/02/11 07:20:04;;;;;;;92.30;45.35;;;;;;;6.30;70.72;98582.88;5071003;28;20033;-72
2022/02/11 07:22:34;;;;;;;85.03;43.65;;;;;;;6.31;70.38;98588.06;5070806;28;20028;-73
2022/02/11 07:25:05;;;;;;;84.43;41.47;;;;;;;6.27;70.47;98602.47;5070254;28;20043;-72
2022/02/11 07:27:30;;;;;;;86.47;42.25;;;;;;;6.28;70.38;98595.94;5067395;28;20111;-73
2022/02/11 07:29:56;;;;;;;69.13;35.38;;;;;;;6.33;70.25;98590.50;5070733;28;20155;-73
2022/02/11 07:32:21;;;;;;;118.93;49.08;;;;;;;6.29;70.38;98584.78;5070725;28;20028;-74
2022/02/11 07:34:46;;;;;;;138.40;53.67;;;;;;;6.34;70.19;98578.53;5070876;28;20028;-74
2022/02/11 07:37:12;;;;;;;222.93;81.85;;;;;;;6.38;70.03;98576.91;5070860;28;20101;-74
2022/02/11 07:39:37;;;;;;;168.63;61.95;;;;;;;6.41;70.22;98576.38;5070618;28;20466;-74
2022/02/11 07:42:03;;;;;;;131.10;50.45;;;;;;;6.38;69.91;98571.47;5068156;28;20040;-74
2022/02/11 07:44:28;;;;;;;72.75;33.63;;;;;;;6.38;69.69;98568.75;5070152;28;20029;-74
2022/02/11 07:46:54;;;;;;;59.72;26.35;;;;;;;6.33;69.61;98572.28;5069032;28;20037;-72
2022/02/11 07:49:19;;;;;;;44.47;21.15;;;;;;;6.36;69.56;98573.63;5069707;28;20031;-72
2022/02/11 07:51:45;;;;;;;37.30;20.40;;;;;;;6.29;69.38;98575.81;5067197;28;20108;-73
2022/02/11 07:54:10;;;;;;;43.72;22.42;;;;;;;6.23;69.60;98573.03;5070244;28;20054;-71
2022/02/11 07:56:35;;;;;;;42.88;21.63;;;;;;;6.18;69.59;98583.06;5069011;28;20028;-71
2022/02/11 07:59:01;;;;;;;38.20;19.88;;;;;;;6.14;69.44;98581.97;5064758;28;20033;-71
2022/02/11 08:01:26;;;;;;;37.75;19.70;;;;;;;6.05;69.38;98579.75;5068891;28;20108;-72
2022/02/11 08:03:52;;;;;;;41.25;21.63;;;;;;;5.97;69.64;98589.19;5069078;28;20028;-73
2022/02/11 08:06:18;;;;;;;38.47;19.52;;;;;;;5.92;69.37;98577.47;5069360;28;20115;-69
2022/02/11 08:08:43;;;;;;;44.78;21.25;;;;;;;5.91;69.17;98575.81;5067964;28;20035;-69
2022/02/11 08:11:09;;;;;;;40.17;19.67;;;;;;;5.92;69.62;98577.47;5066361;28;20029;-72
2022/02/11 08:13:36;;;;;;;46.47;22.20;;;;;;;5.95;69.57;98571.50;5067404;28;20033;-72
2022/02/11 08:16:03;;;;;;;39.75;20.05;;;;;;;5.91;69.03;98579.34;5069736;28;20028;-71
2022/02/11 08:18:28;;;;;;;33.58;18.48;;;;;;;5.89;69.09;98575.25;5067036;28;20040;-72
2022/02/11 08:20:54;;;;;;;34.45;18.65;;;;;;;5.86;69.57;98582.06;5064560;28;20033;-71
2022/02/11 08:23:20;;;;;;;33.55;17.65;;;;;;;5.81;69.21;98576.59;5068975;28;20032;-71
2022/02/11 08:25:45;;;;;;;31.15;16.65;;;;;;;5.84;68.76;98586.94;5060928;28;20074;-71
2022/02/11 08:28:11;;;;;;;37.42;16.05;;;;;;;5.82;69.28;98580.94;5064840;28;20033;-71
2022/02/11 08:30:38;;;;;;;26.17;14.20;;;;;;;5.84;69.47;98589.66;5068554;28;20051;-71
2022/02/11 08:33:04;;;;;;;33.47;16.48;;;;;;;5.85;68.91;98585.03;5068166;28;20098;-71
2022/02/11 08:35:30;;;;;;;31.17;15.13;;;;;;;5.82;68.46;98581.75;5068530;28;20032;-72
2022/02/11 08:37:55;;;;;;;28.52;15.20;;;;;;;5.80;68.70;98581.19;5069218;28;20044;-73
2022/02/11 08:40:20;;;;;;;30.27;15.73;;;;;;;5.82;69.24;98587.19;5071254;28;20028;-72
2022/02/11 08:42:46;;;;;;;39.65;20.27;;;;;;;5.84;68.98;98576.06;5068625;28;20068;-72
2022/02/11 08:45:11;;;;;;;37.08;17.65;;;;;;;5.86;68.99;98571.19;5066781;28;20474;-71
2022/02/11 08:47:38;;;;;;;29.38;15.63;;;;;;;5.91;68.95;98579.34;5067215;28;20031;-71
2022/02/11 08:50:05;;;;;;;33.38;16.60;;;;;;;5.94;68.19;98586.19;5067223;28;20036;-71
2022/02/11 08:52:30;;;;;;;28.42;14.93;;;;;;;5.92;68.50;98586.44;5066437;28;20475;-71
2022/02/11 08:54:56;;;;;;;38.90;17.35;;;;;;;5.96;69.13;98586.75;5068621;28;20031;-72
2022/02/11 08:57:22;;;;;;;32.75;16.38;;;;;;;5.99;68.59;98588.09;5064470;28;20075;-72
2022/02/11 08:59:47;;;;;;;28.23;14.43;;;;;;;6.01;69.12;98588.69;5064046;28;20052;-72
2022/02/11 09:02:14;;;;;;;33.88;16.13;;;;;;;6.01;69.25;98586.81;5065789;28;20025;-72
2022/02/11 09:04:40;;;;;;;27.45;14.52;;;;;;;6.08;69.08;98586.56;5066703;28;20032;-72
2022/02/11 09:07:08;;;;;;;21.40;12.30;;;;;;;6.10;69.39;98585.25;5067641;28;20107;-73
2022/02/11 09:09:34;;;;;;;21.55;12.05;;;;;;;6.08;69.19;98584.69;5068337;28;20082;-72
2022/02/11 09:12:00;;;;;;;24.60;12.73;;;;;;;6.08;69.29;98581.97;5067968;28;20576;-72
2022/02/11 09:14:25;;;;;;;23.48;12.48;;;;;;;6.10;69.03;98581.69;5066909;28;20430;-72
2022/02/11 09:16:50;;;;;;;25.58;13.30;;;;;;;6.12;69.28;98568.63;5067359;28;20077;-72
2022/02/11 09:19:17;;;;;;;23.92;15.23;;;;;;;6.14;69.29;98568.34;5067632;28;20735;-73
2022/02/11 09:21:42;;;;;;;23.55;14.18;;;;;;;6.15;69.09;98573.53;5067053;28;20028;-73
2022/02/11 09:24:08;;;;;;;26.60;15.55;;;;;;;6.18;69.27;98575.75;5071436;28;20074;-76
2022/02/11 09:26:33;;;;;;;44.53;21.48;;;;;;;6.21;68.72;98575.22;5071855;28;20056;-72
2022/02/11 09:29:06;;;;;;;49.90;22.67;;;;;;;6.24;68.63;98569.25;5072473;28;20038;-74
2022/02/11 09:31:32;;;;;;;48.97;22.30;;;;;;;6.28;68.94;98571.44;5071441;28;20045;-73
2022/02/11 09:34:05;;;;;;;41.70;19.25;;;;;;;6.32;68.57;98567.91;5071563;28;20473;-73
2022/02/11 09:36:33;;;;;;;30.65;14.60;;;;;;;6.37;68.25;98569.81;5071898;28;20032;-74
2022/02/11 09:39:03;;;;;;;20.77;11.80;;;;;;;6.42;68.08;98567.13;5063410;28;20024;-71
2022/02/11 09:41:30;;;;;;;20.27;10.40;;;;;;;6.48;67.68;98566.06;5069585;28;20028;-71
2022/02/11 09:44:00;;;;;;;19.30;10.55;;;;;;;6.54;67.42;98558.72;5071706;28;20033;-70
2022/02/11 09:46:28;;;;;;;17.33;10.10;;;;;;;6.62;67.42;98565.56;5071605;28;20016;-71
2022/02/11 09:48:53;;;;;;;19.77;11.40;;;;;;;6.67;67.49;98563.69;5069260;28;20032;-72
2022/02/11 09:51:19;;;;;;;20.63;12.25;;;;;;;6.73;67.20;98566.41;5071391;28;20367;-72
2022/02/11 09:53:44;;;;;;;20.35;11.07;;;;;;;6.75;66.71;98570.50;5068276;28;20063;-72
2022/02/11 09:56:09;;;;;;;21.52;12.15;;;;;;;6.75;66.12;98573.22;5070623;28;20023;-72
2022/02/11 09:58:35;;;;;;;23.05;12.88;;;;;;;6.79;66.42;98570.81;5068759;28;20033;-73
2022/02/11 10:01:01;;;;;;;19.40;11.30;;;;;;;6.86;66.46;98563.19;5068243;28;20025;-73
2022/02/11 10:03:32;;;;;;;19.92;10.77;;;;;;;6.94;65.34;98579.00;5067470;28;20028;-71
2022/02/11 10:06:03;;;;;;;18.33;10.02;;;;;;;7.06;65.08;98572.47;5063958;28;20604;-75
2022/02/11 10:08:31;;;;;;;18.92;10.10;;;;;;;7.10;65.01;98563.50;5067709;28;20021;-72
2022/02/11 10:11:00;;;;;;;22.75;13.35;;;;;;;7.18;64.83;98561.31;5066399;28;20040;-75
2022/02/11 10:13:30;;;;;;;;;;;;;;;7.22;65.28;98559.69;5068177;28;20032;-75
2022/02/11 10:16:08;;;;;;;17.30;10.55;;;;;;;7.22;64.33;98548.78;5067805;28;19916;-72
2022/02/11 10:18:35;;;;;;;19.02;10.40;;;;;;;7.19;63.93;98552.03;5068375;28;20029;-72
2022/02/11 10:21:05;;;;;;;15.93;9.73;;;;;;;7.23;65.07;98553.13;5067408;28;20391;-72
2022/02/11 10:23:41;;;;;;;21.90;11.82;;;;;;;7.27;64.69;98555.06;5070059;28;20108;-72
2022/02/11 10:26:13;;;;;;;18.17;10.95;;;;;;;7.27;64.09;98543.31;5066256;28;20027;-74
2022/02/11 10:28:50;;;;;;;20.02;12.00;;;;;;;7.25;64.02;98545.50;5070291;28;20107;-70
2022/02/11 10:31:34;;;;;;;24.27;13.80;;;;;;;7.24;64.13;98552.88;5063508;28;20044;-77
2022/02/11 10:34:08;;;;;;;29.65;15.77;;;;;;;7.26;64.06;98553.44;5065833;28;20033;-74
2022/02/11 10:36:47;;;;;;;23.73;13.95;;;;;;;7.29;64.01;98550.16;5065002;28;20661;-73
2022/02/11 10:39:14;;;;;;;20.95;13.18;;;;;;;7.29;62.82;98546.59;5068203;28;20066;-72
2022/02/11 10:41:49;;;;;;;24.58;12.60;;;;;;;7.28;63.25;98555.88;5068361;28;20036;-72
2022/02/11 10:44:17;;;;;;;17.92;10.25;;;;;;;7.26;63.45;98552.59;5067485;28;20050;-73
2022/02/11 10:46:51;;;;;;;20.52;9.90;;;;;;;7.25;62.99;98548.22;5068827;28;20040;-72
2022/02/11 10:49:18;;;;;;;17.63;9.70;;;;;;;7.23;63.36;98550.41;5067489;28;20017;-72
2022/02/11 10:51:49;;;;;;;15.38;9.52;;;;;;;7.22;63.01;98549.59;5067610;28;20033;-73
2022/02/11 10:54:29;;;;;;;24.67;11.75;;;;;;;7.19;63.02;98541.13;5070373;28;20112;-73
2022/02/11 10:56:59;;;;;;;39.40;16.90;;;;;;;7.20;63.11;98549.06;5068595;28;20036;-73
2022/02/11 10:59:27;;;;;;;28.70;14.77;;;;;;;7.20;62.58;98534.59;5069069;28;20028;-73
2022/02/11 11:01:55;;;;;;;19.98;11.02;;;;;;;7.19;62.52;98530.22;5067922;28;20546;-73
2022/02/11 11:04:21;;;;;;;17.50;9.90;;;;;;;7.14;62.92;98533.78;5066509;28;20140;-73
2022/02/11 11:06:47;;;;;;;14.68;8.73;;;;;;;7.10;62.22;98519.03;5069021;28;20627;-73
2022/02/11 11:09:15;;;;;;;15.10;8.90;;;;;;;7.09;62.00;98537.31;5070167;28;20028;-72
2022/02/11 11:11:43;;;;;;;20.27;10.82;;;;;;;7.08;62.66;98538.41;5068754;28;20036;-73
2022/02/11 11:14:12;;;;;;;13.25;7.70;;;;;;;7.12;62.43;98535.94;5068609;28;20039;-71
2022/02/11 11:16:39;;;;;;;13.02;6.18;;;;;;;7.10;61.04;98543.59;5070565;28;20496;-71
2022/02/11 11:19:05;;;;;;;13.18;6.60;;;;;;;7.06;61.38;98531.56;5068743;28;20071;-71
2022/02/11 11:21:34;;;;;;;13.40;7.03;;;;;;;7.05;60.94;98543.56;5068974;28;20438;-74
2022/02/11 11:24:00;;;;;;;11.80;6.43;;;;;;;7.06;61.29;98540.59;5067900;28;20023;-72
2022/02/11 11:26:42;;;;;;;10.93;5.72;;;;;;;7.03;60.62;98557.50;5070405;28;20028;-76
2022/02/11 11:29:18;;;;;;;9.60;5.68;;;;;;;7.03;60.25;98556.66;5070402;28;20032;-77
2022/02/11 11:31:58;;;;;;;7.95;5.03;;;;;;;6.96;60.39;98552.28;5066239;28;20040;-83
2022/02/11 11:34:31;;;;;;;;;;;;;;;6.95;60.67;98555.28;5067957;28;20529;-75
2022/02/11 11:37:04;;;;;;;10.68;5.45;;;;;;;6.93;60.75;98571.09;5069249;28;19924;-74
2022/02/11 11:39:29;;;;;;;10.00;5.40;;;;;;;6.90;60.78;98558.00;5067496;28;20028;-72
2022/02/11 11:42:09;;;;;;;10.75;5.70;;;;;;;6.88;61.34;98566.47;5068730;28;20105;-72
2022/02/11 11:44:40;;;;;;;;;;;;;;;6.87;61.15;98577.63;5066422;28;20056;-75
2022/02/11 11:47:06;;;;;;;14.98;6.15;;;;;;;6.86;61.21;98563.19;5066124;28;19962;-73
2022/02/11 11:49:47;;;;;;;14.82;6.30;;;;;;;6.81;61.40;98566.72;5067068;28;20017;-78
2022/02/11 11:52:14;;;;;;;14.13;6.75;;;;;;;6.79;61.84;98566.16;5067636;28;20025;-78
2022/02/11 11:54:40;;;;;;;19.13;7.78;;;;;;;6.78;61.94;98569.97;5067779;28;20059;-74
2022/02/11 11:57:17;;;;;;;14.63;7.43;;;;;;;6.76;61.82;98563.97;5066543;28;20378;-74
2022/02/11 11:59:50;;;;;;;11.50;5.88;;;;;;;6.74;61.96;98566.13;5068667;28;20189;-74
2022/02/11 12:02:24;;;;;;;9.38;5.47;;;;;;;6.68;62.42;98580.84;5066152;28;20097;-77
2022/02/11 12:04:54;;;;;;;10.00;5.68;;;;;;;6.61;63.03;98599.38;5068002;28;20724;-77
2022/02/11 12:07:30;;;;;;;8.43;4.95;;;;;;;6.47;63.99;98594.41;5069555;28;20107;-78
2022/02/11 12:09:59;;;;;;;9.88;5.32;;;;;;;6.24;65.57;98601.09;5068854;28;20020;-76
2022/02/11 12:12:26;;;;;;;11.90;6.55;;;;;;;5.90;68.51;98636.78;5066668;28;20098;-77
2022/02/11 12:14:53;;;;;;;13.70;6.68;;;;;;;5.58;69.72;98629.47;5067358;28;20040;-79
2022/02/11 12:17:20;;;;;;;19.90;10.15;;;;;;;5.33;71.10;98642.59;5068769;28;20071;-75
2022/02/11 12:19:47;;;;;;;55.72;24.70;;;;;;;5.10;72.88;98642.88;5069808;28;20553;-75
2022/02/11 12:22:14;;;;;;;32.78;16.45;;;;;;;4.94;75.18;98655.47;5068826;28;20397;-73
2022/02/11 12:27:31;;;;;;;40.75;21.52;;;;;;;4.62;76.12;98679.56;5067045;28;20089;-75
2022/02/11 12:30:02;;;;;;;26.70;16.67;;;;;;;4.53;77.14;98664.75;5069926;28;20037;-75
2022/02/11 12:32:43;;;;;;;17.75;10.10;;;;;;;4.37;76.97;98682.75;5068852;28;20075;-76
2022/02/11 12:35:24;;;;;;;8.45;5.63;;;;;;;4.20;77.62;98682.78;5066812;28;20076;-76
2022/02/11 12:37:51;;;;;;;11.48;6.25;;;;;;;4.08;78.35;98703.75;5066349;28;20048;-79
2022/02/11 12:40:25;;;;;;;7.10;5.32;;;;;;;3.98;77.54;98690.84;5068634;28;20031;-80
2022/02/11 12:42:54;;;;;;;7.45;5.68;;;;;;;3.82;78.13;98703.34;5069077;28;20474;-74
2022/02/11 12:45:25;;;;;;;10.57;7.03;;;;;;;3.72;78.42;98717.56;5067790;28;20486;-74
2022/02/11 12:47:53;;;;;;;17.58;9.30;;;;;;;3.65;77.55;98733.19;5068719;28;20437;-74
2022/02/11 12:50:53;;;;;;;15.95;9.40;;;;;;;3.48;77.81;98736.66;5068463;28;20024;-73
2022/02/11 12:53:20;;;;;;;15.50;8.50;;;;;;;3.37;78.06;98735.66;5067386;28;20037;-73
2022/02/11 12:55:50;;;;;;;16.50;8.57;;;;;;;3.30;77.51;98753.16;5064156;28;20449;-74
2022/02/11 12:58:18;;;;;;;12.13;7.70;;;;;;;3.19;77.80;98755.63;5068093;28;20075;-73
2022/02/11 13:00:46;;;;;;;19.50;9.18;;;;;;;3.04;78.51;98764.28;5068634;28;20025;-73
2022/02/11 13:03:15;;;;;;;19.35;11.30;;;;;;;2.98;78.69;98770.66;5066834;28;20029;-74
2022/02/11 13:05:44;;;;;;;16.13;8.27;;;;;;;2.90;78.78;98785.41;5069049;28;20032;-73
2022/02/11 13:08:17;;;;;;;16.03;7.70;;;;;;;2.81;78.29;98784.97;5068879;28;20453;-73
2022/02/11 13:10:43;;;;;;;16.90;8.02;;;;;;;2.74;78.45;98800.50;5068952;28;20035;-74
2022/02/11 13:13:17;;;;;;;8.93;5.72;;;;;;;2.71;79.43;98800.97;5069003;28;20040;-75
2022/02/11 13:15:46;;;;;;;7.90;3.92;;;;;;;2.60;78.94;98829.72;5069215;28;20035;-73
2022/02/11 13:18:20;;;;;;;9.02;4.82;;;;;;;2.46;79.14;98810.13;5069008;28;20021;-73
2022/02/11 13:20:59;;;;;;;12.30;6.22;;;;;;;2.44;79.91;98811.44;5067919;28;20550;-73
2022/02/11 13:23:26;;;;;;;9.73;4.63;;;;;;;2.38;79.40;98827.56;5068212;28;20024;-74
2022/02/11 13:25:54;;;;;;;10.10;5.30;;;;;;;2.32;79.22;98836.59;5066563;28;20106;-72
2022/02/11 13:28:21;;;;;;;15.45;5.50;;;;;;;2.25;79.49;98843.19;5063337;28;20032;-72
2022/02/11 13:30:54;;;;;;;10.05;4.78;;;;;;;2.15;79.69;98860.00;5062869;28;20128;-74
2022/02/11 13:33:20;;;;;;;7.03;4.18;;;;;;;2.04;79.71;98870.53;5065635;28;20108;-72
2022/02/11 13:35:46;;;;;;;6.13;3.75;;;;;;;1.97;79.83;98877.13;5067590;28;20418;-72
2022/02/11 13:38:11;;;;;;;5.15;3.03;;;;;;;1.92;79.80;98883.19;5068290;28;20026;-73
2022/02/11 13:40:37;;;;;;;4.70;2.10;;;;;;;1.82;78.73;98885.66;5069101;28;20024;-72
2022/02/11 13:43:07;;;;;;;3.05;2.33;;;;;;;1.77;79.46;98894.44;5067381;28;20712;-73
2022/02/11 13:45:52;;;;;;;4.40;2.30;;;;;;;1.73;78.66;98915.69;5067422;28;20024;-75
2022/02/11 13:48:19;;;;;;;21.58;7.30;;;;;;;1.67;78.38;98921.16;5068965;28;20024;-73
2022/02/11 13:51:17;;;;;;;6.95;3.20;;;;;;;1.63;79.48;98923.50;5069089;28;20077;-76
2022/02/11 13:53:47;;;;;;;14.68;5.93;;;;;;;1.63;79.33;98945.94;5048309;28;20490;-76
2022/02/11 13:56:19;;;;;;;4.38;2.60;;;;;;;1.63;79.68;98956.78;5068167;28;20116;-73
2022/02/11 13:59:03;;;;;;;6.43;3.70;;;;;;;1.63;80.01;98964.06;5068743;28;20641;-74
2022/02/11 14:01:30;;;;;;;8.73;3.72;;;;;;;1.62;79.67;98974.06;5068106;28;20446;-76
2022/02/11 14:04:04;;;;;;;3.63;2.58;;;;;;;1.64;79.82;98977.34;5064388;28;20024;-75
2022/02/11 14:06:36;;;;;;;8.13;4.32;;;;;;;1.62;79.11;98984.88;5072507;28;20050;-74
2022/02/11 14:09:07;;;;;;;4.50;2.75;;;;;;;1.63;79.14;98977.59;5069615;28;20097;-73
2022/02/11 14:11:40;;;;;;;4.05;3.13;;;;;;;1.59;79.86;99009.66;5067959;28;20032;-72
2022/02/11 14:14:17;;;;;;;4.30;2.53;;;;;;;1.59;79.50;99000.72;5067292;28;20489;-72
2022/02/11 14:16:43;;;;;;;5.82;3.40;;;;;;;1.57;79.46;99005.53;5071006;28;20042;-72
2022/02/11 14:19:09;;;;;;;3.92;2.38;;;;;;;1.58;79.44;99008.00;5071169;28;20470;-72
2022/02/11 14:21:34;;;;;;;6.72;3.85;;;;;;;1.63;79.29;99010.03;5071458;28;20070;-72
2022/02/11 14:24:01;;;;;;;4.70;2.63;;;;;;;1.67;79.58;99021.22;5070775;28;20074;-74
2022/02/11 14:26:28;;;;;;;8.25;4.20;;;;;;;1.73;79.43;99015.75;5072438;28;20024;-75
2022/02/11 14:28:53;;;;;;;10.43;4.40;;;;;;;1.72;79.34;99022.22;5073900;28;20025;-72
2022/02/11 14:31:19;;;;;;;20.70;8.02;;;;;;;1.68;78.95;99034.53;5071801;28;20042;-72
2022/02/11 14:33:44;;;;;;;40.65;14.10;;;;;;;1.80;79.25;99037.31;5071691;28;20043;-72
2022/02/11 14:36:10;;;;;;;36.78;11.13;;;;;;;1.86;78.50;99041.00;5072761;28;20082;-73
2022/02/11 14:38:36;;;;;;;33.13;10.82;;;;;;;1.84;79.14;99045.78;5073127;28;20111;-73
2022/02/11 14:43:45;;;;;;;14.00;7.68;;;;;;;1.72;78.44;99059.25;5073055;28;20087;-73
2022/02/11 14:46:11;;;;;;;13.43;7.10;;;;;;;1.61;79.21;99075.16;5073020;28;20025;-72
2022/02/11 14:48:36;;;;;;;33.08;13.25;;;;;;;1.55;79.27;99073.34;5072279;28;20017;-73
2022/02/11 14:51:02;;;;;;;85.20;29.27;;;;;;;1.55;79.52;99084.16;5068960;28;20390;-73
2022/02/11 14:53:27;;;;;;;64.82;24.00;;;;;;;1.54;79.26;99087.06;5070834;28;20091;-72
2022/02/11 14:55:54;;;;;;;28.55;10.35;;;;;;;1.50;79.50;99094.81;5071381;28;20048;-71
2022/02/11 14:58:19;;;;;;;53.92;19.08;;;;;;;1.49;79.01;99099.38;5072179;28;20032;-71
2022/02/11 15:00:45;;;;;;;40.30;15.63;;;;;;;1.52;78.78;99102.69;5072318;28;20016;-71
2022/02/11 15:03:11;;;;;;;49.15;19.27;;;;;;;1.52;78.92;99117.03;5071813;28;20090;-71
2022/02/11 15:05:36;;;;;;;49.45;18.60;;;;;;;1.52;78.53;99121.59;5072459;28;20418;-71
2022/02/11 15:08:03;;;;;;;25.98;10.38;;;;;;;1.48;78.95;99145.56;5072004;28;20098;-71
2022/02/11 15:10:28;;;;;;;30.00;14.52;;;;;;;1.42;78.60;99144.56;5070648;28;20408;-70
2022/02/11 15:12:54;;;;;;;14.18;7.57;;;;;;;1.42;78.24;99143.72;5071434;28;20036;-70
2022/02/11 15:15:19;;;;;;;14.23;8.55;;;;;;;1.41;78.89;99153.72;5068962;28;21544;-69
2022/02/11 15:17:45;;;;;;;14.57;8.15;;;;;;;1.44;78.42;99141.63;5071565;28;20074;-70
2022/02/11 15:20:11;;;;;;;11.63;6.60;;;;;;;1.44;78.09;99157.84;5067192;28;20408;-70
2022/02/11 15:22:36;;;;;;;9.52;6.10;;;;;;;1.44;78.20;99160.56;5070729;28;20034;-69